Time,TemperatureF,DewpointF,PressureIn,WindDirection,WindDirectionDegrees,WindSpeedMPH,WindSpeedGustMPH,Humidity,HourlyPrecipIn,Conditions,Clouds,dailyrainin,SoftwareType,DateUTC
2013-01-11 00:22:00,32.0,25.0,30.02,West,280,1.0,12.0,75,0.00,,,-99.99,,2013-01-11 08:22:00,
2013-01-11 00:32:00,32.0,25.0,30.02,West,280,1.0,12.0,75,0.00,,,-99.99,,2013-01-11 08:32:00,
2013-01-11 00:42:00,32.0,25.0,30.02,West,280,1.0,12.0,75,0.00,,,-99.99,,2013-01-11 08:42:00,
2013-01-11 00:52:00,32.0,25.0,30.02,West,280,1.0,12.0,75,0.00,,,-99.99,,2013-01-11 08:52:00,
2013-01-11 01:22:00,31.0,23.0,30.04,North,0,0.0,11.0,73,0.00,,,-99.99,,2013-01-11 09:22:00,
2013-01-11 01:32:00,31.0,23.0,30.04,North,0,0.0,11.0,73,0.00,,,-99.99,,2013-01-11 09:32:00,
2013-01-11 01:42:00,31.0,23.0,30.04,North,0,0.0,11.0,73,0.00,,,-99.99,,2013-01-11 09:42:00,
2013-01-11 01:52:00,31.0,23.0,30.04,North,0,0.0,11.0,73,0.00,,,-99.99,,2013-01-11 09:52:00,
2013-01-11 02:22:00,31.0,23.0,30.04,North,0,0.0,12.0,73,0.00,,,-99.99,,2013-01-11 10:22:00,
2013-01-11 02:32:00,31.0,23.0,30.04,North,0,0.0,12.0,73,0.00,,,-99.99,,2013-01-11 10:32:00,
2013-01-11 02:42:00,31.0,23.0,30.04,North,0,0.0,12.0,73,0.00,,,-99.99,,2013-01-11 10:42:00,
2013-01-11 02:52:00,31.0,23.0,30.04,North,0,0.0,12.0,73,0.00,,,-99.99,,2013-01-11 10:52:00,
2013-01-11 03:22:00,29.0,23.0,30.07,North,0,0.0,1.0,78,0.00,,,-99.99,,2013-01-11 11:22:00,
2013-01-11 03:32:00,29.0,23.0,30.07,North,0,0.0,1.0,78,0.00,,,-99.99,,2013-01-11 11:32:00,
2013-01-11 03:42:00,29.0,23.0,30.07,North,0,0.0,1.0,78,0.00,,,-99.99,,2013-01-11 11:42:00,
2013-01-11 03:52:00,29.0,23.0,30.07,North,0,0.0,1.0,78,0.00,,,-99.99,,2013-01-11 11:52:00,
2013-01-11 04:22:00,27.0,23.0,30.07,East,80,2.0,4.0,83,0.00,,,-99.99,,2013-01-11 12:22:00,
2013-01-11 04:32:00,27.0,23.0,30.07,East,80,2.0,4.0,83,0.00,,,-99.99,,2013-01-11 12:32:00,
2013-01-11 04:42:00,27.0,23.0,30.07,East,80,2.0,4.0,83,0.00,,,-99.99,,2013-01-11 12:42:00,
2013-01-11 04:52:00,27.0,23.0,30.07,East,80,2.0,4.0,83,0.00,,,-99.99,,2013-01-11 12:52:00,
2013-01-11 05:22:00,25.0,21.0,30.08,East,80,3.0,6.0,86,0.00,,,-99.99,,2013-01-11 13:22:00,
2013-01-11 05:33:00,25.0,21.0,30.08,East,80,3.0,6.0,86,0.00,,,-99.99,,2013-01-11 13:33:00,
2013-01-11 05:42:00,25.0,21.0,30.08,East,80,3.0,6.0,86,0.00,,,-99.99,,2013-01-11 13:42:00,
2013-01-11 05:52:00,25.0,21.0,30.08,East,80,3.0,6.0,86,0.00,,,-99.99,,2013-01-11 13:52:00,
2013-01-11 06:22:00,25.0,21.0,30.10,East,90,6.0,8.0,86,0.00,,,-99.99,,2013-01-11 14:22:00,
2013-01-11 06:33:00,25.0,21.0,30.10,East,90,6.0,8.0,86,0.00,,,-99.99,,2013-01-11 14:33:00,
2013-01-11 06:42:00,25.0,21.0,30.10,East,90,6.0,8.0,86,0.00,,,-99.99,,2013-01-11 14:42:00,
2013-01-11 06:53:00,25.0,21.0,30.10,East,90,6.0,8.0,86,0.00,,,-99.99,,2013-01-11 14:53:00,
2013-01-11 07:23:00,24.0,21.0,30.11,East,90,7.0,9.0,87,0.00,,,-99.99,,2013-01-11 15:23:00,
2013-01-11 07:32:00,24.0,21.0,30.11,East,90,7.0,9.0,87,0.00,,,-99.99,,2013-01-11 15:32:00,
2013-01-11 07:42:00,24.0,21.0,30.11,East,90,7.0,9.0,87,0.00,,,-99.99,,2013-01-11 15:42:00,
2013-01-11 07:52:00,24.0,21.0,30.11,East,90,7.0,9.0,87,0.00,,,-99.99,,2013-01-11 15:52:00,
2013-01-11 08:22:00,25.0,22.0,30.14,East,90,3.0,6.0,87,0.00,,,-99.99,,2013-01-11 16:22:00,
2013-01-11 08:32:00,25.0,22.0,30.14,East,90,3.0,6.0,87,0.00,,,-99.99,,2013-01-11 16:32:00,
2013-01-11 08:42:00,25.0,22.0,30.14,East,90,3.0,6.0,87,0.00,,,-99.99,,2013-01-11 16:42:00,
2013-01-11 08:52:00,25.0,22.0,30.14,East,90,3.0,6.0,87,0.00,,,-99.99,,2013-01-11 16:52:00,
2013-01-11 09:22:00,33.0,25.0,30.16,East,80,1.0,2.0,71,0.00,,,-99.99,,2013-01-11 17:22:00,
2013-01-11 09:33:00,33.0,25.0,30.16,East,80,1.0,2.0,71,0.00,,,-99.99,,2013-01-11 17:33:00,
2013-01-11 09:43:00,33.0,25.0,30.16,East,80,1.0,2.0,71,0.00,,,-99.99,,2013-01-11 17:43:00,
2013-01-11 09:53:00,33.0,25.0,30.16,East,80,1.0,2.0,71,0.00,,,-99.99,,2013-01-11 17:53:00,
2013-01-11 10:23:00,37.0,20.0,30.15,North,0,0.0,12.0,49,0.00,,,-99.99,,2013-01-11 18:23:00,
2013-01-11 10:32:00,37.0,20.0,30.15,North,0,0.0,12.0,49,0.00,,,-99.99,,2013-01-11 18:32:00,
2013-01-11 10:43:00,37.0,20.0,30.15,North,0,0.0,12.0,49,0.00,,,-99.99,,2013-01-11 18:43:00,
2013-01-11 10:53:00,37.0,20.0,30.15,North,0,0.0,12.0,49,0.00,,,-99.99,,2013-01-11 18:53:00,
2013-01-11 11:22:00,38.0,21.0,30.13,West,280,5.0,13.0,49,0.02,,,-99.99,,2013-01-11 19:22:00,
2013-01-11 11:32:00,38.0,21.0,30.13,West,280,5.0,13.0,49,0.02,,,-99.99,,2013-01-11 19:32:00,
2013-01-11 11:42:00,38.0,21.0,30.13,West,280,5.0,13.0,49,0.02,,,-99.99,,2013-01-11 19:42:00,
2013-01-11 11:52:00,38.0,21.0,30.13,West,280,5.0,13.0,49,0.02,,,-99.99,,2013-01-11 19:52:00,
2013-01-11 12:22:00,40.0,22.0,30.09,West,280,8.0,13.0,49,0.01,,,-99.99,,2013-01-11 20:22:00,
2013-01-11 13:23:00,41.0,22.0,30.07,WNW,300,6.0,14.0,47,0.01,,,-99.99,,2013-01-11 21:23:00,
2013-01-11 13:32:00,41.0,22.0,30.07,WNW,300,6.0,14.0,47,0.01,,,-99.99,,2013-01-11 21:32:00,
2013-01-11 13:42:00,41.0,22.0,30.07,WNW,300,6.0,14.0,47,0.01,,,-99.99,,2013-01-11 21:42:00,
2013-01-11 13:52:00,41.0,22.0,30.07,WNW,300,6.0,14.0,47,0.01,,,-99.99,,2013-01-11 21:52:00,
2013-01-11 14:22:00,41.0,21.0,30.05,West,280,9.0,16.0,44,0.01,,,-99.99,,2013-01-11 22:22:00,
2013-01-11 14:33:00,41.0,21.0,30.05,West,280,9.0,16.0,44,0.01,,,-99.99,,2013-01-11 22:33:00,
2013-01-11 14:42:00,41.0,21.0,30.05,West,280,9.0,16.0,44,0.01,,,-99.99,,2013-01-11 22:42:00,
2013-01-11 14:52:00,41.0,21.0,30.05,West,280,9.0,16.0,44,0.01,,,-99.99,,2013-01-11 22:52:00,
2013-01-11 15:22:00,41.0,21.0,30.05,West,270,12.0,15.0,45,0.01,,,-99.99,,2013-01-11 23:22:00,
2013-01-11 15:32:00,41.0,21.0,30.05,West,270,12.0,15.0,45,0.01,,,-99.99,,2013-01-11 23:32:00,
2013-01-11 15:42:00,41.0,21.0,30.05,West,270,12.0,15.0,45,0.01,,,-99.99,,2013-01-11 23:42:00,
2013-01-11 15:53:00,41.0,21.0,30.05,West,270,12.0,15.0,45,0.01,,,-99.99,,2013-01-11 23:53:00,
2013-01-11 16:22:00,39.0,23.0,30.04,West,270,5.0,13.0,52,0.00,,,-99.99,,2013-01-12 00:22:00,
2013-01-11 16:32:00,39.0,23.0,30.04,West,270,5.0,13.0,52,0.00,,,-99.99,,2013-01-12 00:32:00,
2013-01-11 16:42:00,39.0,23.0,30.04,West,270,5.0,13.0,52,0.00,,,-99.99,,2013-01-12 00:42:00,
2013-01-11 16:52:00,39.0,23.0,30.04,West,270,5.0,13.0,52,0.00,,,-99.99,,2013-01-12 00:52:00,
2013-01-11 17:22:00,35.0,23.0,30.04,West,260,1.0,13.0,60,0.00,,,-99.99,,2013-01-12 01:22:00,
2013-01-11 17:32:00,35.0,23.0,30.04,West,260,1.0,13.0,60,0.00,,,-99.99,,2013-01-12 01:32:00,
2013-01-11 17:42:00,35.0,23.0,30.04,West,260,1.0,13.0,60,0.00,,,-99.99,,2013-01-12 01:42:00,
2013-01-11 17:52:00,35.0,23.0,30.04,West,260,1.0,13.0,60,0.00,,,-99.99,,2013-01-12 01:52:00,
2013-01-11 18:22:00,32.0,24.0,30.05,North,0,0.0,3.0,71,0.00,,,-99.99,,2013-01-12 02:22:00,
2013-01-11 18:32:00,32.0,24.0,30.05,North,0,0.0,3.0,71,0.00,,,-99.99,,2013-01-12 02:32:00,
2013-01-11 18:42:00,32.0,24.0,30.05,North,0,0.0,3.0,71,0.00,,,-99.99,,2013-01-12 02:42:00,
2013-01-11 18:52:00,32.0,24.0,30.05,North,0,0.0,3.0,71,0.00,,,-99.99,,2013-01-12 02:52:00,
2013-01-11 19:22:00,32.0,26.0,30.05,North,-999,0.0,0.0,77,0.00,,,-99.99,,2013-01-12 03:22:00,
2013-01-11 19:32:00,32.0,26.0,30.05,North,-999,0.0,0.0,77,0.00,,,-99.99,,2013-01-12 03:32:00,
2013-01-11 19:42:00,32.0,26.0,30.05,North,-999,0.0,0.0,77,0.00,,,-99.99,,2013-01-12 03:42:00,
2013-01-11 19:52:00,32.0,26.0,30.05,North,-999,0.0,0.0,77,0.00,,,-99.99,,2013-01-12 03:52:00,
2013-01-11 20:32:00,31.0,26.0,30.06,North,-999,0.0,0.0,83,0.00,,,-99.99,,2013-01-12 04:32:00,
2013-01-11 20:42:00,31.0,26.0,30.06,North,-999,0.0,0.0,83,0.00,,,-99.99,,2013-01-12 04:42:00,
2013-01-11 20:52:00,31.0,26.0,30.06,North,-999,0.0,0.0,83,0.00,,,-99.99,,2013-01-12 04:52:00,
2013-01-11 21:22:00,32.0,28.0,30.06,North,-999,0.0,0.0,85,0.00,,,-99.99,,2013-01-12 05:22:00,
2013-01-11 21:32:00,32.0,28.0,30.06,North,-999,0.0,0.0,85,0.00,,,-99.99,,2013-01-12 05:32:00,
2013-01-11 21:42:00,32.0,28.0,30.06,North,-999,0.0,0.0,85,0.00,,,-99.99,,2013-01-12 05:42:00,
2013-01-11 21:52:00,32.0,28.0,30.06,North,-999,0.0,0.0,85,0.00,,,-99.99,,2013-01-12 05:52:00,
2013-01-11 22:22:00,32.0,28.0,30.06,North,-999,0.0,0.0,86,0.00,,,-99.99,,2013-01-12 06:22:00,
2013-01-11 22:32:00,32.0,28.0,30.06,North,-999,0.0,0.0,86,0.00,,,-99.99,,2013-01-12 06:32:00,
2013-01-11 22:42:00,32.0,28.0,30.06,North,-999,0.0,0.0,86,0.00,,,-99.99,,2013-01-12 06:42:00,
2013-01-11 22:52:00,32.0,28.0,30.06,North,-999,0.0,0.0,86,0.00,,,-99.99,,2013-01-12 06:52:00,
2013-01-11 23:22:00,31.0,28.0,30.06,North,0,0.0,1.0,87,0.00,,,-99.99,,2013-01-12 07:22:00,
2013-01-11 23:32:00,31.0,28.0,30.06,North,0,0.0,1.0,87,0.00,,,-99.99,,2013-01-12 07:32:00,
2013-01-11 23:42:00,31.0,28.0,30.06,North,0,0.0,1.0,87,0.00,,,-99.99,,2013-01-12 07:42:00,
2013-01-11 23:52:00,31.0,28.0,30.06,North,0,0.0,1.0,87,0.00,,,-99.99,,2013-01-12 07:52:00,